Time,TemperatureF,DewpointF,PressureIn,WindDirection,WindDirectionDegrees,WindSpeedMPH,WindSpeedGustMPH,Humidity,HourlyPrecipIn,Conditions,Clouds,dailyrainin,SolarRadiationWatts/m^2,SoftwareType,DateUTC
2013-04-19 00:01:00,37.6,34.4,29.35,SW,215,8.4,12.0,88,0.00,-DZ,,0.00,0.0,WeatherDisplay:10.37,2013-04-19 05:01:00,
2013-04-19 00:06:00,37.2,34.3,29.35,SW,229,9.4,11.5,89,0.01,-DZ,,0.01,0.0,WeatherDisplay:10.37,2013-04-19 05:06:00,
2013-04-19 00:11:00,37.0,34.1,29.35,SW,215,6.6,9.2,89,0.01,-DZ,,0.01,0.0,WeatherDisplay:10.37,2013-04-19 05:11:00,
2013-04-19 00:16:00,37.0,34.3,29.34,SW,232,10.6,12.0,90,0.01,-DZ,,0.01,0.0,WeatherDisplay:10.37,2013-04-19 05:16:00,
2013-04-19 00:21:00,36.6,33.9,29.34,SW,230,7.8,9.2,90,0.01,-RA,,0.01,0.0,WeatherDisplay:10.37,2013-04-19 05:21:00,
2013-04-19 00:26:00,36.5,33.8,29.34,SW,228,16.2,21.9,90,0.01,-RA,,0.01,0.0,WeatherDisplay:10.37,2013-04-19 05:26:00,
2013-04-19 00:31:00,36.2,33.8,29.34,SW,222,14.5,19.2,91,0.01,-RA,,0.01,0.0,WeatherDisplay:10.37,2013-04-19 05:31:00,
2013-04-19 00:36:00,35.9,33.5,29.34,WSW,256,9.6,13.2,91,0.01,-RA,,0.01,0.0,WeatherDisplay:10.37,2013-04-19 05:36:00,
2013-04-19 00:41:00,35.8,33.4,29.34,SW,236,10.2,12.0,91,0.01,-SN,,0.01,0.0,WeatherDisplay:10.37,2013-04-19 05:41:00,
2013-04-19 00:46:00,35.5,33.1,29.33,SW,232,11.9,16.1,91,0.01,-SN,,0.01,0.0,WeatherDisplay:10.37,2013-04-19 05:46:00,
2013-04-19 00:51:00,35.3,32.9,29.33,SW,222,15.2,18.4,91,0.01,-SN,,0.01,0.0,WeatherDisplay:10.37,2013-04-19 05:51:00,
2013-04-19 00:56:00,35.3,32.9,29.33,SW,216,10.2,12.0,91,0.01,-SN,,0.01,0.0,WeatherDisplay:10.37,2013-04-19 05:56:00,
2013-04-19 01:01:00,35.0,32.6,29.33,SSW,209,12.6,13.2,91,0.01,-SN,,0.01,0.0,WeatherDisplay:10.37,2013-04-19 06:01:00,
2013-04-19 01:06:00,34.9,32.5,29.33,SW,230,6.7,10.4,91,0.00,-SN,,0.01,0.0,WeatherDisplay:10.37,2013-04-19 06:06:00,
2013-04-19 01:11:00,34.7,32.3,29.33,SW,223,10.8,15.0,91,0.00,-SN,,0.01,0.0,WeatherDisplay:10.37,2013-04-19 06:11:00,
2013-04-19 01:16:00,34.7,32.1,29.33,WSW,242,13.7,18.4,90,0.00,-SN,,0.01,0.0,WeatherDisplay:10.37,2013-04-19 06:16:00,
2013-04-19 01:21:00,34.6,32.0,29.33,WSW,258,10.2,15.0,90,0.00,-SN,,0.01,0.0,WeatherDisplay:10.37,2013-04-19 06:21:00,
2013-04-19 01:26:00,34.3,31.7,29.33,WSW,256,11.1,15.0,90,0.00,-SN,,0.01,0.0,WeatherDisplay:10.37,2013-04-19 06:26:00,
2013-04-19 01:31:00,34.1,31.7,29.33,WSW,252,8.6,13.2,91,0.00,-SN,,0.01,0.0,WeatherDisplay:10.37,2013-04-19 06:31:00,
2013-04-19 01:36:00,34.0,31.6,29.33,SSW,207,10.4,12.0,91,0.00,-SN,,0.01,0.0,WeatherDisplay:10.37,2013-04-19 06:36:00,
2013-04-19 01:41:00,34.0,31.6,29.33,SW,235,8.8,10.8,91,0.00,-SN,,0.01,0.0,WeatherDisplay:10.37,2013-04-19 06:41:00,
2013-04-19 01:46:00,34.0,31.6,29.33,SW,232,12.2,15.0,91,0.00,-SN,,0.01,0.0,WeatherDisplay:10.37,2013-04-19 06:46:00,
2013-04-19 01:51:00,34.0,31.6,29.33,SW,225,10.8,14.4,91,0.00,-SN,,0.01,0.0,WeatherDisplay:10.37,2013-04-19 06:51:00,
2013-04-19 01:56:00,34.0,31.4,29.33,SW,228,8.7,13.2,90,0.00,-SN,,0.01,0.0,WeatherDisplay:10.37,2013-04-19 06:56:00,
2013-04-19 02:01:00,34.0,31.4,29.33,SW,234,7.3,9.2,90,0.00,-SN,,0.01,0.0,WeatherDisplay:10.37,2013-04-19 07:01:00,
2013-04-19 02:06:00,34.0,31.4,29.33,SW,236,10.1,15.0,90,0.00,-SN,,0.01,0.0,WeatherDisplay:10.37,2013-04-19 07:06:00,
2013-04-19 02:11:00,34.1,31.2,29.33,SW,229,11.3,17.3,89,0.00,-SN,,0.01,0.0,WeatherDisplay:10.37,2013-04-19 07:11:00,
2013-04-19 02:16:00,34.1,31.2,29.33,WSW,244,10.2,13.2,89,0.00,-SN,,0.01,0.0,WeatherDisplay:10.37,2013-04-19 07:16:00,
2013-04-19 02:21:00,34.0,31.1,29.33,SW,215,10.0,15.0,89,0.00,-SN,,0.01,0.0,WeatherDisplay:10.37,2013-04-19 07:21:00,
2013-04-19 02:26:00,33.8,30.9,29.33,SSW,213,8.1,9.6,89,0.00,-SN,,0.01,0.0,WeatherDisplay:10.37,2013-04-19 07:26:00,
2013-04-19 02:31:00,33.5,30.6,29.33,West,259,11.6,15.0,89,0.00,-SN,,0.01,0.0,WeatherDisplay:10.37,2013-04-19 07:31:00,
2013-04-19 02:36:00,33.5,30.9,29.33,WSW,241,11.8,12.0,90,0.00,-SN,,0.01,0.0,WeatherDisplay:10.37,2013-04-19 07:36:00,
2013-04-19 02:41:00,33.7,31.1,29.33,SW,215,5.5,8.4,90,0.00,OVC,,0.01,0.0,WeatherDisplay:10.37,2013-04-19 07:41:00,
2013-04-19 02:46:00,33.7,31.1,29.32,SW,219,7.3,10.4,90,0.00,OVC,,0.01,0.0,WeatherDisplay:10.37,2013-04-19 07:46:00,
2013-04-19 02:51:00,33.7,31.1,29.32,SW,231,13.0,17.3,90,0.00,OVC,,0.01,0.0,WeatherDisplay:10.37,2013-04-19 07:51:00,
2013-04-19 02:56:00,33.7,30.8,29.32,SW,229,12.2,16.1,89,0.00,OVC,,0.01,0.0,WeatherDisplay:10.37,2013-04-19 07:56:00,
2013-04-19 03:01:00,33.8,30.6,29.33,WSW,241,8.4,10.8,88,0.00,-SN,,0.01,0.0,WeatherDisplay:10.37,2013-04-19 08:01:00,
2013-04-19 03:06:00,33.8,30.6,29.33,SW,236,12.8,15.0,88,0.00,-SN,,0.01,0.0,WeatherDisplay:10.37,2013-04-19 08:06:00,
2013-04-19 03:11:00,33.8,30.6,29.33,WNW,290,8.0,15.0,88,0.00,-SN,,0.01,0.0,WeatherDisplay:10.37,2013-04-19 08:11:00,
2013-04-19 03:16:00,33.7,30.5,29.33,West,268,7.4,12.0,88,0.00,-SN,,0.01,0.0,WeatherDisplay:10.37,2013-04-19 08:16:00,
2013-04-19 03:21:00,33.7,30.2,29.33,West,277,13.6,24.2,87,0.00,-SN,,0.01,0.0,WeatherDisplay:10.37,2013-04-19 08:21:00,
2013-04-19 03:26:00,33.7,30.5,29.33,West,260,10.2,13.2,88,0.00,-SN,,0.01,0.0,WeatherDisplay:10.37,2013-04-19 08:26:00,
2013-04-19 03:32:00,33.5,30.3,29.33,WSW,244,7.0,11.0,88,0.00,-SN,,0.01,0.0,WeatherDisplay:10.37,2013-04-19 08:32:00,
2013-04-19 03:37:00,33.5,30.3,29.33,WSW,249,10.0,17.0,88,0.00,-SN,,0.01,0.0,WeatherDisplay:10.37,2013-04-19 08:37:00,
2013-04-19 03:42:00,33.4,30.2,29.33,West,267,11.6,16.1,88,0.00,BKN,,0.01,0.0,WeatherDisplay:10.37,2013-04-19 08:42:00,
2013-04-19 03:47:00,33.5,30.3,29.33,WSW,253,7.0,18.0,88,0.00,BKN,,0.01,0.0,WeatherDisplay:10.37,2013-04-19 08:47:00,
2013-04-19 03:52:00,33.4,30.2,29.33,WNW,284,13.5,18.0,88,0.00,BKN,,0.01,0.0,WeatherDisplay:10.37,2013-04-19 08:52:00,
2013-04-19 03:57:00,33.4,30.2,29.33,WSW,244,9.0,13.0,88,0.00,BKN,,0.01,0.0,WeatherDisplay:10.37,2013-04-19 08:57:00,
2013-04-19 04:02:00,33.4,30.2,29.33,WSW,244,8.3,10.8,88,0.00,BKN,,0.01,0.0,WeatherDisplay:10.37,2013-04-19 09:02:00,
2013-04-19 04:07:00,33.4,30.2,29.33,WSW,254,13.0,24.0,88,0.00,BKN,,0.01,0.0,WeatherDisplay:10.37,2013-04-19 09:07:00,
2013-04-19 04:12:00,33.4,29.9,29.33,WSW,258,9.0,10.8,87,0.00,BKN,,0.01,0.0,WeatherDisplay:10.37,2013-04-19 09:12:00,
2013-04-19 04:17:00,33.4,29.9,29.33,WSW,253,9.0,17.0,87,0.00,BKN,,0.01,0.0,WeatherDisplay:10.37,2013-04-19 09:17:00,
2013-04-19 04:22:00,33.2,30.0,29.33,WSW,244,9.3,11.5,88,0.00,BKN,,0.01,0.0,WeatherDisplay:10.37,2013-04-19 09:22:00,
2013-04-19 04:27:00,33.2,30.0,29.33,SW,214,11.7,14.4,88,0.00,BKN,,0.01,0.0,WeatherDisplay:10.37,2013-04-19 09:27:00,
2013-04-19 04:32:00,33.2,30.0,29.33,WSW,249,8.6,10.8,88,0.00,RA,,0.01,0.0,WeatherDisplay:10.37,2013-04-19 09:32:00,
2013-04-19 04:37:00,33.2,30.0,29.33,WSW,251,11.6,13.2,88,0.00,RA,,0.01,0.0,WeatherDisplay:10.37,2013-04-19 09:37:00,
2013-04-19 04:42:00,33.2,29.8,29.33,West,271,7.2,10.8,87,0.00,BKN,,0.01,0.0,WeatherDisplay:10.37,2013-04-19 09:42:00,
2013-04-19 04:47:00,33.2,29.8,29.33,WSW,254,9.8,10.8,87,0.00,BKN,,0.01,0.0,WeatherDisplay:10.37,2013-04-19 09:47:00,
2013-04-19 04:52:00,33.2,29.8,29.33,WSW,238,11.7,15.0,87,0.00,OVC,,0.01,0.0,WeatherDisplay:10.37,2013-04-19 09:52:00,
2013-04-19 04:57:00,33.2,29.8,29.33,WSW,238,9.4,12.0,87,0.00,OVC,,0.01,0.0,WeatherDisplay:10.37,2013-04-19 09:57:00,
2013-04-19 05:02:00,33.1,29.7,29.33,WSW,244,11.0,12.7,87,0.00,OVC,,0.01,0.0,WeatherDisplay:10.37,2013-04-19 10:02:00,
2013-04-19 05:07:00,33.1,29.7,29.33,WSW,240,12.0,20.4,87,0.00,OVC,,0.01,0.0,WeatherDisplay:10.37,2013-04-19 10:07:00,
2013-04-19 05:12:00,33.1,29.7,29.33,WSW,249,8.5,10.8,87,0.00,BKN,,0.01,0.0,WeatherDisplay:10.37,2013-04-19 10:12:00,
2013-04-19 05:17:00,32.9,29.5,29.34,WSW,240,9.2,12.0,87,0.00,BKN,,0.01,0.0,WeatherDisplay:10.37,2013-04-19 10:17:00,
2013-04-19 05:22:00,32.9,29.5,29.34,WSW,248,9.6,17.3,87,0.00,-SN,,0.01,0.0,WeatherDisplay:10.37,2013-04-19 10:22:00,
2013-04-19 05:27:00,32.9,29.7,29.34,WSW,244,8.7,10.8,88,0.00,-SN,,0.01,0.0,WeatherDisplay:10.37,2013-04-19 10:27:00,
2013-04-19 05:32:00,32.8,29.6,29.34,West,272,8.6,16.8,88,0.00,-SN,,0.01,0.0,WeatherDisplay:10.37,2013-04-19 10:32:00,
2013-04-19 05:37:00,32.7,29.5,29.34,West,272,11.1,15.0,88,0.00,-SN,,0.01,0.0,WeatherDisplay:10.37,2013-04-19 10:37:00,
2013-04-19 05:42:00,32.5,29.6,29.34,WSW,257,9.5,10.8,89,0.00,-SN,,0.01,0.0,WeatherDisplay:10.37,2013-04-19 10:42:00,
2013-04-19 05:47:00,32.4,29.8,29.34,WNW,284,8.0,10.8,90,0.00,-SN,,0.01,0.0,WeatherDisplay:10.37,2013-04-19 10:47:00,
2013-04-19 05:52:00,32.4,29.8,29.34,West,269,7.6,10.4,90,0.00,-SN,,0.01,0.0,WeatherDisplay:10.37,2013-04-19 10:52:00,
2013-04-19 05:57:00,32.4,30.1,29.34,WSW,239,6.6,14.4,91,0.00,-SN,,0.01,0.0,WeatherDisplay:10.37,2013-04-19 10:57:00,
2013-04-19 06:02:00,32.2,29.6,29.34,WSW,240,7.8,18.4,90,0.00,-SN,,0.01,0.0,WeatherDisplay:10.37,2013-04-19 11:02:00,
2013-04-19 06:07:00,32.2,29.9,29.34,West,275,13.1,15.0,91,0.00,-SN,,0.01,0.0,WeatherDisplay:10.37,2013-04-19 11:07:00,
2013-04-19 06:12:00,32.2,29.6,29.34,West,261,5.4,8.1,90,0.00,-SN,,0.01,0.0,WeatherDisplay:10.37,2013-04-19 11:12:00,
2013-04-19 06:17:00,32.2,29.6,29.36,WNW,303,11.9,19.6,90,0.00,-SN,,0.01,0.0,WeatherDisplay:10.37,2013-04-19 11:17:00,
2013-04-19 06:22:00,32.2,29.6,29.36,West,271,12.1,18.4,90,0.00,-SN,,0.01,5.0,WeatherDisplay:10.37,2013-04-19 11:22:00,
2013-04-19 06:27:00,32.2,29.6,29.36,West,260,11.4,15.0,90,0.00,-SN,,0.01,7.0,WeatherDisplay:10.37,2013-04-19 11:27:00,
2013-04-19 06:32:00,32.2,29.6,29.36,West,270,7.0,9.6,90,0.00,-SN,,0.01,14.0,WeatherDisplay:10.37,2013-04-19 11:32:00,
2013-04-19 06:37:00,32.2,29.6,29.36,West,271,10.1,12.0,90,0.00,-SN,,0.01,19.0,WeatherDisplay:10.37,2013-04-19 11:37:00,
2013-04-19 06:42:00,32.2,29.6,29.36,SW,231,8.3,12.0,90,0.00,-SN,,0.01,21.0,WeatherDisplay:10.37,2013-04-19 11:42:00,
2013-04-19 06:47:00,32.1,29.5,29.36,West,278,8.6,15.0,90,0.00,-SN,,0.01,23.0,WeatherDisplay:10.37,2013-04-19 11:47:00,
2013-04-19 06:52:00,32.2,29.6,29.36,SW,236,9.1,12.0,90,0.00,-SN,,0.01,26.0,WeatherDisplay:10.37,2013-04-19 11:52:00,
2013-04-19 06:57:00,32.1,29.8,29.36,NW,312,7.5,10.8,91,0.00,-SN,,0.01,28.0,WeatherDisplay:10.37,2013-04-19 11:57:00,
2013-04-19 07:02:00,32.1,29.8,29.36,WSW,255,11.0,15.6,91,0.00,-SN,,0.01,33.0,WeatherDisplay:10.37,2013-04-19 12:02:00,
2013-04-19 07:07:00,32.2,29.6,29.36,SW,221,10.9,15.0,90,0.00,-SN,,0.01,39.0,WeatherDisplay:10.37,2013-04-19 12:07:00,
2013-04-19 07:12:00,32.2,29.3,29.36,West,271,11.6,20.7,89,0.00,-SN,,0.01,39.0,WeatherDisplay:10.37,2013-04-19 12:12:00,
2013-04-19 07:17:00,32.2,29.3,29.38,WSW,257,9.4,15.0,89,0.00,-SN,,0.01,42.0,WeatherDisplay:10.37,2013-04-19 12:17:00,
2013-04-19 07:22:00,32.2,29.0,29.38,West,281,13.4,16.1,88,0.00,-SN,,0.01,40.0,WeatherDisplay:10.37,2013-04-19 12:22:00,
2013-04-19 07:27:00,32.4,29.2,29.38,West,261,7.8,11.5,88,0.00,-SN,,0.01,47.0,WeatherDisplay:10.37,2013-04-19 12:27:00,
2013-04-19 07:32:00,32.2,29.0,29.38,West,271,9.4,10.4,88,0.00,-SN,,0.01,62.0,WeatherDisplay:10.37,2013-04-19 12:32:00,
2013-04-19 07:37:00,32.2,28.8,29.38,NW,304,11.9,14.4,87,0.00,-SN,,0.01,63.0,WeatherDisplay:10.37,2013-04-19 12:37:00,
2013-04-19 07:42:00,32.2,28.8,29.38,WNW,296,8.4,12.0,87,0.00,-SN,,0.01,79.0,WeatherDisplay:10.37,2013-04-19 12:42:00,
2013-04-19 07:47:00,32.2,28.5,29.38,WNW,288,12.9,17.3,86,0.00,-SN,,0.01,81.0,WeatherDisplay:10.37,2013-04-19 12:47:00,
2013-04-19 07:52:00,32.4,28.7,29.38,West,267,12.6,15.0,86,0.00,-SN,,0.01,97.0,WeatherDisplay:10.37,2013-04-19 12:52:00,
2013-04-19 07:57:00,32.4,28.4,29.38,SSW,205,10.7,18.4,85,0.00,-SN,,0.01,90.0,WeatherDisplay:10.37,2013-04-19 12:57:00,
2013-04-19 08:02:00,32.4,28.4,29.39,West,281,14.7,18.4,85,0.00,-SN,,0.01,69.0,WeatherDisplay:10.37,2013-04-19 13:02:00,
2013-04-19 08:07:00,32.4,28.1,29.39,NW,306,10.5,13.2,84,0.00,-SN,,0.01,60.0,WeatherDisplay:10.37,2013-04-19 13:07:00,
2013-04-19 08:12:00,32.5,28.2,29.39,West,279,10.5,15.0,84,0.00,-SN,,0.01,128.0,WeatherDisplay:10.37,2013-04-19 13:12:00,
2013-04-19 08:17:00,32.5,28.2,29.40,West,273,6.5,12.0,84,0.00,-SN,,0.01,127.0,WeatherDisplay:10.37,2013-04-19 13:17:00,
2013-04-19 08:22:00,32.5,28.2,29.40,NW,309,14.6,19.2,84,0.00,-SN,,0.01,127.0,WeatherDisplay:10.37,2013-04-19 13:22:00,
2013-04-19 08:27:00,32.5,27.9,29.40,WSW,248,9.2,19.2,83,0.00,-SN,,0.01,134.0,WeatherDisplay:10.37,2013-04-19 13:27:00,
2013-04-19 08:32:00,32.5,27.9,29.40,West,262,9.1,12.0,83,0.00,-SN,,0.01,158.0,WeatherDisplay:10.37,2013-04-19 13:32:00,
2013-04-19 08:37:00,32.7,28.1,29.40,West,281,10.4,17.3,83,0.00,-SN,,0.01,172.0,WeatherDisplay:10.37,2013-04-19 13:37:00,
2013-04-19 08:42:00,32.7,27.8,29.40,WNW,290,9.0,21.0,82,0.00,-SN,,0.01,204.0,WeatherDisplay:10.37,2013-04-19 13:42:00,
2013-04-19 08:47:00,32.8,27.6,29.41,West,279,12.6,16.1,81,0.00,-SN,,0.01,185.0,WeatherDisplay:10.37,2013-04-19 13:47:00,
2013-04-19 08:52:00,32.8,27.6,29.41,WNW,294,9.3,11.5,81,0.00,-SN,,0.01,181.0,WeatherDisplay:10.37,2013-04-19 13:52:00,
2013-04-19 08:57:00,32.8,27.3,29.41,WNW,288,11.5,15.0,80,0.00,-SN,,0.01,149.0,WeatherDisplay:10.37,2013-04-19 13:57:00,
2013-04-19 09:02:00,32.8,27.3,29.41,WNW,286,11.0,13.2,80,0.00,-SN,,0.01,135.0,WeatherDisplay:10.37,2013-04-19 14:02:00,
2013-04-19 09:07:00,32.8,27.3,29.41,WNW,282,8.9,10.8,80,0.00,-SN,,0.01,202.0,WeatherDisplay:10.37,2013-04-19 14:07:00,
2013-04-19 09:12:00,32.9,27.4,29.41,West,272,6.6,12.0,80,0.00,-SN,,0.01,163.0,WeatherDisplay:10.37,2013-04-19 14:12:00,
2013-04-19 09:17:00,32.9,27.1,29.43,WNW,291,13.6,14.4,79,0.00,-SN,,0.01,176.0,WeatherDisplay:10.37,2013-04-19 14:17:00,
2013-04-19 09:22:00,32.8,26.7,29.43,West,276,15.0,22.0,78,0.00,SCT,,0.01,169.0,WeatherDisplay:10.37,2013-04-19 14:22:00,
2013-04-19 09:27:00,32.8,26.7,29.43,WNW,301,7.5,11.5,78,0.00,SCT,,0.01,167.0,WeatherDisplay:10.37,2013-04-19 14:27:00,
2013-04-19 09:32:00,32.9,27.1,29.43,NW,305,6.5,9.2,79,0.00,SCT,,0.01,195.0,WeatherDisplay:10.37,2013-04-19 14:32:00,
2013-04-19 09:37:00,32.8,26.7,29.43,WNW,294,13.5,18.4,78,0.00,SCT,,0.01,234.0,WeatherDisplay:10.37,2013-04-19 14:37:00,
2013-04-19 09:42:00,32.9,26.2,29.43,West,273,17.8,25.2,76,0.00,-SN,,0.01,287.0,WeatherDisplay:10.37,2013-04-19 14:42:00,
2013-04-19 09:47:00,33.1,26.4,29.44,West,267,12.2,19.6,76,0.00,-SN,,0.01,251.0,WeatherDisplay:10.37,2013-04-19 14:47:00,
2013-04-19 09:52:00,33.4,26.6,29.44,West,278,9.2,12.0,76,0.00,-SN,,0.01,220.0,WeatherDisplay:10.37,2013-04-19 14:52:00,
2013-04-19 09:57:00,33.2,25.8,29.44,WNW,286,10.2,13.2,74,0.00,-SN,,0.01,172.0,WeatherDisplay:10.37,2013-04-19 14:57:00,
2013-04-19 10:02:00,33.1,25.7,29.44,WNW,300,11.7,15.0,74,0.00,-SN,,0.01,204.0,WeatherDisplay:10.37,2013-04-19 15:02:00,
2013-04-19 10:07:00,33.1,26.0,29.44,WNW,286,5.6,10.4,75,0.00,-SN,,0.01,218.0,WeatherDisplay:10.37,2013-04-19 15:07:00,
2013-04-19 10:12:00,32.9,26.2,29.44,WSW,257,11.1,16.1,76,0.00,-SN,,0.01,156.0,WeatherDisplay:10.37,2013-04-19 15:12:00,
2013-04-19 10:17:00,32.9,26.2,29.45,WNW,293,10.6,15.0,76,0.00,-SN,,0.01,202.0,WeatherDisplay:10.37,2013-04-19 15:17:00,
2013-04-19 10:22:00,32.9,26.2,29.45,WNW,298,11.8,16.1,76,0.00,BKN,,0.01,214.0,WeatherDisplay:10.37,2013-04-19 15:22:00,
2013-04-19 10:27:00,32.9,26.2,29.45,WNW,296,14.2,18.4,76,0.00,BKN,,0.01,320.0,WeatherDisplay:10.37,2013-04-19 15:27:00,
2013-04-19 10:32:00,33.1,26.0,29.46,WNW,286,11.5,16.8,75,0.00,BKN,,0.01,241.0,WeatherDisplay:10.37,2013-04-19 15:32:00,
2013-04-19 10:37:00,32.9,25.8,29.46,WNW,296,14.4,20.7,75,0.00,BKN,,0.01,193.0,WeatherDisplay:10.37,2013-04-19 15:37:00,
2013-04-19 10:42:00,32.8,25.7,29.46,West,281,10.6,17.3,75,0.00,-SN,,0.01,294.0,WeatherDisplay:10.37,2013-04-19 15:42:00,
2013-04-19 10:47:00,33.1,26.0,29.47,WNW,293,9.0,12.0,75,0.00,-SN,,0.01,265.0,WeatherDisplay:10.37,2013-04-19 15:47:00,
2013-04-19 10:52:00,32.9,26.2,29.47,WNW,285,12.2,20.7,76,0.00,-SN,,0.01,318.0,WeatherDisplay:10.37,2013-04-19 15:52:00,
2013-04-19 10:57:00,33.2,25.1,29.47,NW,325,9.4,18.4,72,0.00,-SN,,0.01,338.0,WeatherDisplay:10.37,2013-04-19 15:57:00,
2013-04-19 11:02:00,33.4,25.0,29.48,WNW,300,10.4,21.9,71,0.00,BKN,,0.01,230.0,WeatherDisplay:10.37,2013-04-19 16:02:00,
2013-04-19 11:07:00,33.4,25.7,29.48,WNW,302,9.6,12.0,73,0.00,BKN,,0.01,260.0,WeatherDisplay:10.37,2013-04-19 16:07:00,
2013-04-19 11:12:00,33.2,25.5,29.48,WNW,284,11.5,16.1,73,0.00,BKN,,0.01,271.0,WeatherDisplay:10.37,2013-04-19 16:12:00,
2013-04-19 11:17:00,33.1,25.7,29.49,West,275,10.9,14.4,74,0.00,BKN,,0.01,248.0,WeatherDisplay:10.37,2013-04-19 16:17:00,
2013-04-19 11:22:00,33.4,26.6,29.49,WNW,303,10.9,12.0,76,0.00,BKN,,0.01,406.0,WeatherDisplay:10.37,2013-04-19 16:22:00,
2013-04-19 11:27:00,33.4,26.0,29.49,NW,309,12.1,15.0,74,0.00,BKN,,0.01,450.0,WeatherDisplay:10.37,2013-04-19 16:27:00,
2013-04-19 11:32:00,33.8,26.7,29.49,West,260,9.6,13.2,75,0.00,BKN,,0.01,543.0,WeatherDisplay:10.37,2013-04-19 16:32:00,
2013-04-19 11:37:00,33.8,26.4,29.49,West,263,11.3,17.3,74,0.00,BKN,,0.01,345.0,WeatherDisplay:10.37,2013-04-19 16:37:00,
2013-04-19 11:42:00,33.7,26.0,29.49,WNW,292,10.9,16.1,73,0.00,SCT,,0.01,443.0,WeatherDisplay:10.37,2013-04-19 16:42:00,
2013-04-19 11:47:00,34.0,25.2,29.50,West,273,15.8,22.8,70,0.00,SCT,,0.01,587.0,WeatherDisplay:10.37,2013-04-19 16:47:00,
2013-04-19 11:52:00,34.6,25.8,29.50,WNW,294,11.6,19.6,70,0.00,SCT,,0.01,587.0,WeatherDisplay:10.37,2013-04-19 16:52:00,
2013-04-19 11:57:00,34.9,25.8,29.50,West,276,9.1,13.2,69,0.00,SCT,,0.01,494.0,WeatherDisplay:10.37,2013-04-19 16:57:00,
2013-04-19 12:02:00,34.7,25.2,29.50,WNW,286,9.5,13.2,68,0.00,SCT,,0.01,257.0,WeatherDisplay:10.37,2013-04-19 17:02:00,
2013-04-19 12:07:00,34.3,24.1,29.50,NW,306,19.0,34.8,66,0.00,SCT,,0.01,239.0,WeatherDisplay:10.37,2013-04-19 17:07:00,
2013-04-19 12:12:00,33.5,24.8,29.50,West,274,9.7,16.1,70,0.00,-SN,,0.01,262.0,WeatherDisplay:10.37,2013-04-19 17:12:00,
2013-04-19 12:17:00,33.2,24.5,29.51,NW,316,10.4,16.8,70,0.00,-SN,,0.01,214.0,WeatherDisplay:10.37,2013-04-19 17:17:00,
2013-04-19 12:22:00,33.2,24.5,29.51,West,266,11.6,22.8,70,0.00,SCT,,0.01,350.0,WeatherDisplay:10.37,2013-04-19 17:22:00,
2013-04-19 12:27:00,33.7,25.3,29.51,NW,309,14.5,17.3,71,0.00,SCT,,0.01,248.0,WeatherDisplay:10.37,2013-04-19 17:27:00,
2013-04-19 12:32:00,33.1,24.7,29.52,NW,322,10.8,17.3,71,0.00,SCT,,0.01,450.0,WeatherDisplay:10.37,2013-04-19 17:32:00,
2013-04-19 12:37:00,33.2,24.8,29.52,NW,323,8.5,13.2,71,0.00,SCT,,0.01,236.0,WeatherDisplay:10.37,2013-04-19 17:37:00,
2013-04-19 12:42:00,33.4,25.7,29.52,NW,324,10.3,18.0,73,0.00,SCT,,0.01,272.0,WeatherDisplay:10.37,2013-04-19 17:42:00,
2013-04-19 12:47:00,33.5,24.8,29.52,NW,308,7.8,13.2,70,0.00,SCT,,0.01,352.0,WeatherDisplay:10.37,2013-04-19 17:47:00,
2013-04-19 12:52:00,33.9,24.1,29.52,WNW,294,10.0,21.0,67,0.00,SCT,,0.01,251.0,WeatherDisplay:10.37,2013-04-19 17:52:00,
2013-04-19 12:57:00,33.7,25.0,29.52,WNW,291,9.6,15.0,70,0.00,SCT,,0.01,311.0,WeatherDisplay:10.37,2013-04-19 17:57:00,
2013-04-19 13:02:00,33.7,26.0,29.54,WNW,286,12.3,15.6,73,0.00,-SN,,0.01,237.0,WeatherDisplay:10.37,2013-04-19 18:02:00,
2013-04-19 13:07:00,33.8,25.4,29.54,West,280,6.6,11.5,71,0.00,-SN,,0.01,589.0,WeatherDisplay:10.37,2013-04-19 18:07:00,
2013-04-19 13:12:00,34.7,24.1,29.54,West,271,11.3,15.6,65,0.00,-SN,,0.01,457.0,WeatherDisplay:10.37,2013-04-19 18:12:00,
2013-04-19 13:17:00,35.3,24.3,29.54,WNW,284,11.7,22.8,64,0.00,-SN,,0.01,288.0,WeatherDisplay:10.37,2013-04-19 18:17:00,
2013-04-19 13:22:00,35.2,23.5,29.54,West,272,13.1,17.3,62,0.00,SCT,,0.01,272.0,WeatherDisplay:10.37,2013-04-19 18:22:00,
2013-04-19 13:27:00,34.7,22.2,29.54,NW,319,18.5,20.7,60,0.00,SCT,,0.01,271.0,WeatherDisplay:10.37,2013-04-19 18:27:00,
2013-04-19 13:32:00,34.6,23.3,29.55,West,263,11.6,18.4,63,0.00,SCT,,0.01,265.0,WeatherDisplay:10.37,2013-04-19 18:32:00,
2013-04-19 13:37:00,34.4,22.7,29.55,West,280,15.3,19.2,62,0.00,SCT,,0.01,338.0,WeatherDisplay:10.37,2013-04-19 18:37:00,
2013-04-19 13:42:00,34.6,23.7,29.55,NW,306,4.5,8.1,64,0.00,-SN,,0.01,193.0,WeatherDisplay:10.37,2013-04-19 18:42:00,
2013-04-19 13:47:00,34.6,24.4,29.56,West,271,14.6,23.0,66,0.00,-SN,,0.01,311.0,WeatherDisplay:10.37,2013-04-19 18:47:00,
2013-04-19 13:52:00,34.6,24.8,29.56,WNW,284,10.5,18.4,67,0.00,-SN,,0.01,468.0,WeatherDisplay:10.37,2013-04-19 18:52:00,
2013-04-19 13:57:00,34.6,23.3,29.56,West,265,10.4,15.0,63,0.00,-SN,,0.01,341.0,WeatherDisplay:10.37,2013-04-19 18:57:00,
2013-04-19 14:02:00,34.7,24.5,29.57,West,281,10.7,13.2,66,0.00,SCT,,0.01,200.0,WeatherDisplay:10.37,2013-04-19 19:02:00,
2013-04-19 14:07:00,34.7,24.9,29.57,NW,312,15.2,20.7,67,0.00,SCT,,0.01,387.0,WeatherDisplay:10.37,2013-04-19 19:07:00,
2013-04-19 14:12:00,35.0,24.8,29.57,West,271,17.1,25.3,66,0.00,SCT,,0.01,229.0,WeatherDisplay:10.37,2013-04-19 19:12:00,
2013-04-19 14:17:00,34.4,24.9,29.58,NNW,329,11.6,18.4,68,0.00,SCT,,0.01,431.0,WeatherDisplay:10.37,2013-04-19 19:17:00,
2013-04-19 14:22:00,34.1,26.0,29.58,NW,319,13.0,17.0,72,0.00,SCT,,0.01,489.0,WeatherDisplay:10.37,2013-04-19 19:22:00,
2013-04-19 14:27:00,34.0,25.9,29.58,West,279,11.8,17.3,72,0.00,SCT,,0.01,415.0,WeatherDisplay:10.37,2013-04-19 19:27:00,
2013-04-19 14:32:00,34.3,26.2,29.59,NW,313,10.0,15.0,72,0.00,SCT,,0.01,438.0,WeatherDisplay:10.37,2013-04-19 19:32:00,
2013-04-19 14:37:00,34.6,25.5,29.59,WNW,300,12.3,21.6,69,0.00,SCT,,0.01,329.0,WeatherDisplay:10.37,2013-04-19 19:37:00,
2013-04-19 14:42:00,34.7,24.9,29.59,NW,324,11.0,27.6,67,0.00,SCT,,0.01,589.0,WeatherDisplay:10.37,2013-04-19 19:42:00,
2013-04-19 14:47:00,34.7,25.9,29.60,West,272,10.9,14.4,70,0.00,SCT,,0.01,276.0,WeatherDisplay:10.37,2013-04-19 19:47:00,
2013-04-19 14:52:00,33.8,23.6,29.60,WNW,283,13.5,21.9,66,0.00,SCT,,0.01,355.0,WeatherDisplay:10.37,2013-04-19 19:52:00,
2013-04-19 14:57:00,34.3,24.5,29.60,NW,325,11.7,17.3,67,0.00,SCT,,0.01,591.0,WeatherDisplay:10.37,2013-04-19 19:57:00,
2013-04-19 15:02:00,34.7,24.5,29.60,WNW,291,16.1,24.2,66,0.00,-SN,,0.01,318.0,WeatherDisplay:10.37,2013-04-19 20:02:00,
2013-04-19 15:07:00,34.4,24.6,29.60,WNW,292,5.5,18.4,67,0.00,-SN,,0.01,267.0,WeatherDisplay:10.37,2013-04-19 20:07:00,
2013-04-19 15:12:00,34.4,24.9,29.60,NNW,332,12.4,15.6,68,0.00,-SN,,0.01,336.0,WeatherDisplay:10.37,2013-04-19 20:12:00,
2013-04-19 15:17:00,34.7,25.9,29.62,WNW,289,10.3,20.4,70,0.00,-SN,,0.01,141.0,WeatherDisplay:10.37,2013-04-19 20:17:00,
2013-04-19 15:22:00,33.5,26.7,29.62,West,273,10.5,13.2,76,0.00,SCT,,0.01,178.0,WeatherDisplay:10.37,2013-04-19 20:22:00,
2013-04-19 15:27:00,33.4,27.0,29.62,NW,319,6.2,9.6,77,0.00,SCT,,0.01,385.0,WeatherDisplay:10.37,2013-04-19 20:27:00,
2013-04-19 15:32:00,34.1,27.0,29.62,NW,324,9.8,13.2,75,0.00,SCT,,0.01,501.0,WeatherDisplay:10.37,2013-04-19 20:32:00,
2013-04-19 15:37:00,34.4,23.5,29.62,NW,307,10.1,17.3,64,0.00,SCT,,0.01,250.0,WeatherDisplay:10.37,2013-04-19 20:37:00,
2013-04-19 15:42:00,34.6,24.0,29.62,NW,321,8.2,11.5,65,0.00,SCT,,0.01,355.0,WeatherDisplay:10.37,2013-04-19 20:42:00,
2013-04-19 15:47:00,34.1,23.9,29.64,WSW,251,16.0,25.3,66,0.00,SCT,,0.01,353.0,WeatherDisplay:10.37,2013-04-19 20:47:00,
2013-04-19 15:52:00,34.1,24.3,29.64,West,276,11.4,13.2,67,0.00,SCT,,0.01,719.0,WeatherDisplay:10.37,2013-04-19 20:52:00,
2013-04-19 15:57:00,35.2,25.0,29.64,NW,313,7.7,10.4,66,0.00,SCT,,0.01,798.0,WeatherDisplay:10.37,2013-04-19 20:57:00,
2013-04-19 16:02:00,35.8,24.0,29.65,NW,306,14.8,16.8,62,0.00,SCT,,0.01,422.0,WeatherDisplay:10.37,2013-04-19 21:02:00,
2013-04-19 16:07:00,36.2,24.4,29.65,WNW,289,15.4,19.6,62,0.00,SCT,,0.01,812.0,WeatherDisplay:10.37,2013-04-19 21:07:00,
2013-04-19 16:12:00,36.6,23.6,29.65,WNW,285,14.8,24.2,59,0.00,SCT,,0.01,670.0,WeatherDisplay:10.37,2013-04-19 21:12:00,
2013-04-19 16:17:00,36.6,22.8,29.65,WNW,302,8.1,19.6,57,0.00,SCT,,0.01,264.0,WeatherDisplay:10.37,2013-04-19 21:17:00,
2013-04-19 16:22:00,36.2,22.8,29.65,NW,306,13.9,27.6,58,0.00,-SN,,0.01,239.0,WeatherDisplay:10.37,2013-04-19 21:22:00,
2013-04-19 16:27:00,35.9,23.0,29.65,NW,311,15.7,24.0,59,0.00,-SN,,0.01,204.0,WeatherDisplay:10.37,2013-04-19 21:27:00,
2013-04-19 16:32:00,35.5,23.0,29.67,NNW,342,14.0,19.6,60,0.00,-SN,,0.01,179.0,WeatherDisplay:10.37,2013-04-19 21:32:00,
2013-04-19 16:37:00,35.0,23.3,29.67,WNW,286,12.5,20.7,62,0.00,-SN,,0.01,123.0,WeatherDisplay:10.37,2013-04-19 21:37:00,
2013-04-19 16:42:00,34.9,23.6,29.67,North,350,12.0,24.2,63,0.00,-SN,,0.01,264.0,WeatherDisplay:10.37,2013-04-19 21:42:00,
2013-04-19 16:47:00,35.6,24.6,29.68,WNW,289,11.9,16.1,64,0.00,-SN,,0.01,608.0,WeatherDisplay:10.37,2013-04-19 21:47:00,
2013-04-19 16:52:00,35.2,23.5,29.68,WNW,300,15.3,18.4,62,0.00,-SN,,0.01,104.0,WeatherDisplay:10.37,2013-04-19 21:52:00,
2013-04-19 16:57:00,35.0,24.4,29.68,WNW,290,6.4,8.4,65,0.00,-SN,,0.01,244.0,WeatherDisplay:10.37,2013-04-19 21:57:00,
2013-04-19 17:02:00,35.3,23.6,29.70,NW,316,12.6,18.4,62,0.00,-SN,,0.01,200.0,WeatherDisplay:10.37,2013-04-19 22:02:00,
2013-04-19 17:07:00,34.9,24.3,29.70,West,277,15.4,22.8,65,0.00,-SN,,0.01,295.0,WeatherDisplay:10.37,2013-04-19 22:07:00,
2013-04-19 17:12:00,34.9,24.7,29.70,WNW,290,10.0,18.4,66,0.00,-SN,,0.01,520.0,WeatherDisplay:10.37,2013-04-19 22:12:00,
2013-04-19 17:17:00,35.6,25.7,29.70,NW,311,6.4,7.2,67,0.00,-SN,,0.01,473.0,WeatherDisplay:10.37,2013-04-19 22:17:00,
2013-04-19 17:22:00,35.2,25.3,29.70,WNW,300,16.3,20.7,67,0.00,SCT,,0.01,120.0,WeatherDisplay:10.37,2013-04-19 22:22:00,
2013-04-19 17:27:00,33.5,25.8,29.70,WNW,288,19.7,23.0,73,0.00,SCT,,0.01,107.0,WeatherDisplay:10.37,2013-04-19 22:27:00,
2013-04-19 17:32:00,33.1,26.4,29.72,West,276,12.5,18.0,76,0.00,SCT,,0.01,388.0,WeatherDisplay:10.37,2013-04-19 22:32:00,
2013-04-19 17:37:00,34.0,26.9,29.72,NW,305,7.9,16.1,75,0.00,SCT,,0.01,411.0,WeatherDisplay:10.37,2013-04-19 22:37:00,
2013-04-19 17:42:00,34.3,25.9,29.72,WNW,284,12.9,16.1,71,0.00,-SN,,0.01,329.0,WeatherDisplay:10.37,2013-04-19 22:42:00,
2013-04-19 17:47:00,34.4,25.6,29.72,NW,304,9.3,15.0,70,0.00,-SN,,0.01,199.0,WeatherDisplay:10.37,2013-04-19 22:47:00,
2013-04-19 17:52:00,34.9,25.7,29.72,WNW,301,9.0,16.0,69,0.00,-SN,,0.01,148.0,WeatherDisplay:10.37,2013-04-19 22:52:00,
2013-04-19 17:57:00,35.0,25.1,29.72,NW,326,9.5,12.0,67,0.00,-SN,,0.01,142.0,WeatherDisplay:10.37,2013-04-19 22:57:00,
2013-04-19 18:02:00,35.5,25.3,29.73,WNW,296,9.4,17.3,66,0.00,-SN,,0.01,345.0,WeatherDisplay:10.37,2013-04-19 23:02:00,
2013-04-19 18:07:00,36.0,23.4,29.73,WNW,296,15.2,21.6,60,0.00,-SN,,0.01,105.0,WeatherDisplay:10.37,2013-04-19 23:07:00,
2013-04-19 18:12:00,35.9,23.7,29.73,WNW,285,12.0,16.1,61,0.00,-SN,,0.01,104.0,WeatherDisplay:10.37,2013-04-19 23:12:00,
2013-04-19 18:17:00,35.8,23.7,29.73,WNW,284,12.9,15.6,61,0.00,-SN,,0.01,102.0,WeatherDisplay:10.37,2013-04-19 23:17:00,
2013-04-19 18:22:00,35.5,23.4,29.73,NW,315,10.7,18.4,61,0.00,SCT,,0.01,37.0,WeatherDisplay:10.37,2013-04-19 23:22:00,
2013-04-19 18:27:00,35.3,24.3,29.73,NW,314,9.5,17.3,64,0.00,SCT,,0.01,53.0,WeatherDisplay:10.37,2013-04-19 23:27:00,
2013-04-19 18:32:00,34.6,24.4,29.75,NW,311,10.9,13.2,66,0.00,SCT,,0.01,70.0,WeatherDisplay:10.37,2013-04-19 23:32:00,
2013-04-19 18:37:00,34.0,24.2,29.75,NW,306,15.6,20.7,67,0.00,SCT,,0.01,44.0,WeatherDisplay:10.37,2013-04-19 23:37:00,
2013-04-19 18:42:00,33.5,25.1,29.75,NW,322,9.0,15.0,71,0.00,-SN,,0.01,139.0,WeatherDisplay:10.37,2013-04-19 23:42:00,
2013-04-19 18:47:00,33.4,26.3,29.76,NNW,327,10.2,18.0,75,0.00,-SN,,0.01,148.0,WeatherDisplay:10.37,2013-04-19 23:47:00,
2013-04-19 18:52:00,33.2,26.4,29.76,NW,308,8.0,17.0,76,0.00,-SN,,0.01,54.0,WeatherDisplay:10.37,2013-04-19 23:52:00,
2013-04-19 18:57:00,33.1,26.4,29.76,WNW,296,9.9,14.4,76,0.00,-SN,,0.01,56.0,WeatherDisplay:10.37,2013-04-19 23:57:00,
2013-04-19 19:02:00,33.2,25.8,29.77,WNW,291,9.3,15.0,74,0.00,-SN,,0.01,35.0,WeatherDisplay:10.37,2013-04-20 00:02:00,
2013-04-19 19:07:00,33.4,25.7,29.77,WNW,292,9.5,12.0,73,0.00,-SN,,0.01,47.0,WeatherDisplay:10.37,2013-04-20 00:07:00,
2013-04-19 19:12:00,33.7,25.0,29.77,NNW,340,10.5,17.3,70,0.00,SCT,,0.01,32.0,WeatherDisplay:10.37,2013-04-20 00:12:00,
2013-04-19 19:17:00,33.8,25.0,29.78,NW,326,9.6,16.1,70,0.00,SCT,,0.01,44.0,WeatherDisplay:10.37,2013-04-20 00:17:00,
2013-04-19 19:22:00,34.0,24.9,29.78,WNW,290,8.7,10.8,69,0.00,SCT,,0.01,33.0,WeatherDisplay:10.37,2013-04-20 00:22:00,
2013-04-19 19:27:00,34.0,24.9,29.78,NW,321,9.1,12.0,69,0.00,SCT,,0.01,37.0,WeatherDisplay:10.37,2013-04-20 00:27:00,
2013-04-19 19:32:00,34.0,24.2,29.80,WNW,286,11.7,17.3,67,0.00,SCT,,0.01,30.0,WeatherDisplay:10.37,2013-04-20 00:32:00,
2013-04-19 19:37:00,33.8,24.0,29.80,West,277,9.1,15.0,67,0.00,SCT,,0.01,14.0,WeatherDisplay:10.37,2013-04-20 00:37:00,
2013-04-19 19:42:00,33.8,24.0,29.80,WNW,296,6.7,9.6,67,0.00,SCT,,0.01,9.0,WeatherDisplay:10.37,2013-04-20 00:42:00,
2013-04-19 19:47:00,33.7,22.8,29.81,NW,313,12.0,15.0,64,0.00,SCT,,0.01,7.0,WeatherDisplay:10.37,2013-04-20 00:47:00,
2013-04-19 19:52:00,33.7,23.9,29.81,NW,309,8.0,12.0,67,0.00,SCT,,0.01,0.0,WeatherDisplay:10.37,2013-04-20 00:52:00,
2013-04-19 19:57:00,33.4,23.3,29.81,NNW,327,8.8,16.1,66,0.00,SCT,,0.01,0.0,WeatherDisplay:10.37,2013-04-20 00:57:00,
2013-04-19 20:02:00,33.4,22.9,29.82,WNW,294,7.8,16.1,65,0.00,SCT,,0.01,0.0,WeatherDisplay:10.37,2013-04-20 01:02:00,
2013-04-19 20:07:00,33.4,23.3,29.82,NW,319,6.4,12.0,66,0.00,SCT,,0.01,0.0,WeatherDisplay:10.37,2013-04-20 01:07:00,
2013-04-19 20:12:00,33.4,23.3,29.82,NW,304,4.6,6.0,66,0.00,-SN,,0.01,0.0,WeatherDisplay:10.37,2013-04-20 01:12:00,
2013-04-19 20:17:00,33.2,23.4,29.83,NNW,346,6.7,10.8,67,0.00,-SN,,0.01,0.0,WeatherDisplay:10.37,2013-04-20 01:17:00,
2013-04-19 20:22:00,32.7,24.0,29.83,NNW,346,6.3,9.6,70,0.00,SCT,,0.01,0.0,WeatherDisplay:10.37,2013-04-20 01:22:00,
2013-04-19 20:27:00,32.2,24.5,29.83,NW,316,3.1,6.0,73,0.00,SCT,,0.01,0.0,WeatherDisplay:10.37,2013-04-20 01:27:00,
2013-04-19 20:32:00,31.8,24.5,29.84,NW,320,4.2,6.9,74,0.00,SCT,,0.01,0.0,WeatherDisplay:10.37,2013-04-20 01:32:00,
2013-04-19 20:37:00,31.9,24.2,29.84,NNW,344,3.9,6.0,73,0.00,SCT,,0.01,0.0,WeatherDisplay:10.37,2013-04-20 01:37:00,
2013-04-19 20:42:00,32.1,24.1,29.84,NNW,333,4.3,8.1,72,0.00,SCT,,0.01,0.0,WeatherDisplay:10.37,2013-04-20 01:42:00,
2013-04-19 20:47:00,32.1,23.8,29.86,NNW,346,8.0,10.8,71,0.00,SCT,,0.01,0.0,WeatherDisplay:10.37,2013-04-20 01:47:00,
2013-04-19 20:52:00,32.1,23.8,29.86,NW,321,4.3,10.4,71,0.00,SCT,,0.01,0.0,WeatherDisplay:10.37,2013-04-20 01:52:00,
2013-04-19 20:57:00,32.1,23.8,29.86,NNW,335,5.4,7.2,71,0.00,SCT,,0.01,0.0,WeatherDisplay:10.37,2013-04-20 01:57:00,
2013-04-19 21:02:00,32.1,23.8,29.87,NW,313,7.7,9.6,71,0.00,SCT,,0.01,0.0,WeatherDisplay:10.37,2013-04-20 02:02:00,
2013-04-19 21:07:00,32.2,22.8,29.87,NW,307,8.2,11.5,68,0.00,SCT,,0.01,0.0,WeatherDisplay:10.37,2013-04-20 02:07:00,
2013-04-19 21:12:00,32.2,22.5,29.87,NW,325,8.3,13.2,67,0.00,SCT,,0.01,0.0,WeatherDisplay:10.37,2013-04-20 02:12:00,
2013-04-19 21:17:00,32.2,22.1,29.88,NNW,335,5.4,8.4,66,0.00,SCT,,0.01,0.0,WeatherDisplay:10.37,2013-04-20 02:17:00,
2013-04-19 21:22:00,32.2,21.7,29.88,NW,314,11.3,16.1,65,0.00,CLR,,0.01,0.0,WeatherDisplay:10.37,2013-04-20 02:22:00,
2013-04-19 21:27:00,32.1,21.7,29.88,NW,306,10.8,15.0,65,0.00,CLR,,0.01,0.0,WeatherDisplay:10.37,2013-04-20 02:27:00,
2013-04-19 21:32:00,32.1,22.0,29.89,NW,317,9.5,13.2,66,0.00,CLR,,0.01,0.0,WeatherDisplay:10.37,2013-04-20 02:32:00,
2013-04-19 21:37:00,31.9,22.2,29.89,WNW,299,7.5,10.8,67,0.00,CLR,,0.01,0.0,WeatherDisplay:10.37,2013-04-20 02:37:00,
2013-04-19 21:42:00,31.8,22.4,29.89,NNW,337,5.2,8.4,68,0.00,SCT,,0.01,0.0,WeatherDisplay:10.37,2013-04-20 02:42:00,
2013-04-19 21:47:00,31.6,22.6,29.90,NW,318,8.2,17.3,69,0.00,SCT,,0.01,0.0,WeatherDisplay:10.37,2013-04-20 02:47:00,
2013-04-19 21:52:00,31.5,22.8,29.90,NNW,346,8.5,12.0,70,0.00,SCT,,0.01,0.0,WeatherDisplay:10.37,2013-04-20 02:52:00,
2013-04-19 21:57:00,31.3,23.0,29.90,WNW,286,5.4,8.1,71,0.00,SCT,,0.01,0.0,WeatherDisplay:10.37,2013-04-20 02:57:00,
2013-04-19 22:02:00,31.2,23.2,29.91,NW,307,3.7,7.2,72,0.00,SCT,,0.01,0.0,WeatherDisplay:10.37,2013-04-20 03:02:00,
2013-04-19 22:07:00,31.2,23.2,29.91,NW,313,6.5,8.4,72,0.00,SCT,,0.01,0.0,WeatherDisplay:10.37,2013-04-20 03:07:00,
2013-04-19 22:12:00,31.0,23.0,29.91,WNW,293,6.9,10.4,72,0.00,SCT,,0.01,0.0,WeatherDisplay:10.37,2013-04-20 03:12:00,
2013-04-19 22:17:00,31.0,23.4,29.92,NW,306,7.8,10.8,73,0.00,SCT,,0.01,0.0,WeatherDisplay:10.37,2013-04-20 03:17:00,
2013-04-19 22:22:00,30.9,22.9,29.92,WNW,294,6.3,8.4,72,0.00,SCT,,0.01,0.0,WeatherDisplay:10.37,2013-04-20 03:22:00,
2013-04-19 22:27:00,30.7,22.4,29.92,North,5,11.7,19.6,71,0.00,SCT,,0.01,0.0,WeatherDisplay:10.37,2013-04-20 03:27:00,
2013-04-19 22:32:00,30.6,21.3,29.93,NW,315,8.9,13.2,68,0.00,SCT,,0.01,0.0,WeatherDisplay:10.37,2013-04-20 03:32:00,
2013-04-19 22:37:00,30.4,20.0,29.93,NNW,337,7.7,13.2,65,0.00,SCT,,0.01,0.0,WeatherDisplay:10.37,2013-04-20 03:37:00,
2013-04-19 22:42:00,30.3,19.9,29.93,WNW,298,6.9,10.8,65,0.00,CLR,,0.01,0.0,WeatherDisplay:10.37,2013-04-20 03:42:00,
2013-04-19 22:47:00,30.1,20.1,29.93,NW,320,4.8,4.8,66,0.00,CLR,,0.01,0.0,WeatherDisplay:10.37,2013-04-20 03:47:00,
2013-04-19 22:52:00,30.0,20.0,29.93,NNW,339,6.2,8.4,66,0.00,CLR,,0.01,0.0,WeatherDisplay:10.37,2013-04-20 03:52:00,
2013-04-19 22:57:00,30.0,19.7,29.93,North,5,8.8,13.2,65,0.00,CLR,,0.01,0.0,WeatherDisplay:10.37,2013-04-20 03:57:00,
2013-04-19 23:01:00,30.0,19.7,29.94,NNW,334,7.2,9.6,65,0.00,CLR,,0.01,0.0,WeatherDisplay:10.37,2013-04-20 04:01:00,
2013-04-19 23:02:00,30.0,19.7,29.94,NNW,329,6.5,8.4,65,0.00,CLR,,0.01,0.0,WeatherDisplay:10.37,2013-04-20 04:02:00,
2013-04-19 23:07:00,29.8,19.8,29.94,NNW,333,6.7,9.6,66,0.00,CLR,,0.01,0.0,WeatherDisplay:10.37,2013-04-20 04:07:00,
2013-04-19 23:12:00,29.8,19.8,29.94,North,355,3.2,4.8,66,0.00,CLR,,0.01,0.0,WeatherDisplay:10.37,2013-04-20 04:12:00,
2013-04-19 23:17:00,29.5,19.9,29.94,North,355,4.2,7.2,67,0.00,CLR,,0.01,0.0,WeatherDisplay:10.37,2013-04-20 04:17:00,
2013-04-19 23:22:00,29.5,19.9,29.94,NNW,342,0.5,4.6,67,0.00,CLR,,0.01,0.0,WeatherDisplay:10.37,2013-04-20 04:22:00,
2013-04-19 23:27:00,29.5,19.9,29.94,NNW,338,3.8,7.2,67,0.00,CLR,,0.01,0.0,WeatherDisplay:10.37,2013-04-20 04:27:00,
2013-04-19 23:32:00,29.4,20.1,29.94,WNW,302,2.7,3.6,68,0.00,CLR,,0.01,0.0,WeatherDisplay:10.37,2013-04-20 04:32:00,
2013-04-19 23:37:00,29.4,20.1,29.94,NNW,333,2.3,3.6,68,0.00,CLR,,0.01,0.0,WeatherDisplay:10.37,2013-04-20 04:37:00,
2013-04-19 23:42:00,29.4,20.5,29.94,NNW,337,1.8,4.8,69,0.00,CLR,,0.01,0.0,WeatherDisplay:10.37,2013-04-20 04:42:00,
2013-04-19 23:47:00,29.5,20.2,29.95,North,5,5.5,7.2,68,0.00,CLR,,0.01,0.0,WeatherDisplay:10.37,2013-04-20 04:47:00,
2013-04-19 23:52:00,29.5,20.2,29.95,NNW,340,1.7,5.8,68,0.00,CLR,,0.01,0.0,WeatherDisplay:10.37,2013-04-20 04:52:00,
2013-04-19 23:57:00,29.5,20.2,29.95,NW,319,4.2,7.2,68,0.00,CLR,,0.01,0.0,WeatherDisplay:10.37,2013-04-20 04:57:00,